Arkansas Post National Memor, Arkansas
Current Conditions -  °F | °C
As of 2:53 PM on Thursday 20 Nov 2014 (Local Time) from KPBF Reporting Station
Clear Clear  
Wind Chill: 55°   Ceiling: Unl
Heat Index: 55°   Visibility: 10mi
Dew Point: 38°   Wind: 9mph
Humidity: 53%   Direction: 130°SE
Pressure: 30.17"   Gusts: NA
Location:  34.1564°N, 91.3915°W
Report Text: KPBF 202053Z AUTO 13008KT 10SM CLR 13/03 A3017 RMK AO2 SLP216 T01280033 56024
Loading
Personal Weather Stations






























Interactive Weather Map New forecast layout! Learn more

10-Day Weather Forecast

Advertisements
Track Severe Weather on mobile